Decoded Metar for KLRD (LAREDO in TX, USA) (IATA:LRD) | Meteo·Mobile Aviation Weather
aviador You're here:

KLRD Decoded Metar

LAREDO in TX, USA
Report Time2018-08-19 04:56:00
UTC Time2018-08-19 05:27:31
Flight Rules vfr VFR
Wind150° at 14 kt
W.Decomp.*RWY 14: 14.0 kt HW 0.5 kt RCW
RWY 17: 12.4 kt HW 6.6 kt LCW
W.Rank150° ranks 3
Current wind is above 150° avg. (10.7)
Visibility9999 m
Phenomena:N/A
Clouds:N/A
Expected CloudBase > 4,400 ft AGL from Temp-Dew spread
CeilingNone
Temp31°C (ISA +17)
Dew Point20°C (52% RH)
Heat Index33.0°C
AAT29.6°C
QNH1013 hPa
Density Alt2,762 ft
Elevation509 ft
Report Wrong Elevation
Raw Report
KLRD 190456Z AUTO 15014KT 10SM CLR 31/20 A2991 RMK AO2 PK WND
15026/0422 SLP126 T03110200 404060250=

Extra information for KLRD:More info

Metar Taf Metar & Taf Last 4 Metars F.Rules Stats Wind Profile Meteogram Temp Stats Airport Information Weather charts Add Link Nearby VenuesMetar ALERT Operation Metar Decoded Social comments

AIRNAV info for KLRD